Terminal Aerodrome Forecast
Issued by NWS

Current Version | Previous Version | Graphics & Text | Print | Product List | Glossary On
Versions: 1 2 3 4 5 6 7 8 9 10 11 12 13 14 15 16 17 18 19
000
FTUS41 KPBZ 250812 AAA
TAFMGW
TAF AMD
KMGW 250812Z 2508/2606 17010KT P6SM BKN100
     FM251000 19012KT 3SM -SHRA SCT015 OVC035
      TEMPO 2512/2514 BKN015
     FM251400 26015G25KT 5SM -SHRA OVC020
     FM251800 27015G25KT P6SM OVC020
     FM252200 28012G22KT P6SM BKN035=

USA.gov is the U.S. government's official web portal to all federal, state and local government web resources and services.